createdAt,value
2022-11-02T00:01:33.896Z,1.70
2022-11-02T00:04:00.671Z,1.90
2022-11-02T00:06:27.358Z,1.33
2022-11-02T00:08:54.045Z,1.30
2022-11-02T00:11:20.692Z,1.40
2022-11-02T00:13:47.353Z,1.48
2022-11-02T00:16:15.724Z,1.52
2022-11-02T00:18:44.092Z,2.00
2022-11-02T00:21:11.926Z,2.10
2022-11-02T00:23:40.186Z,1.80
2022-11-02T00:26:07.041Z,1.75
2022-11-02T00:28:33.853Z,1.63
2022-11-02T00:31:00.548Z,1.77
2022-11-02T00:33:27.406Z,1.45
2022-11-02T00:35:55.514Z,2.83
2022-11-02T00:38:22.232Z,3.60
2022-11-02T00:40:48.903Z,6.05
2022-11-02T00:43:15.788Z,6.40
2022-11-02T00:45:42.846Z,6.22
2022-11-02T00:48:10.161Z,3.83
2022-11-02T00:50:36.914Z,4.75
2022-11-02T00:53:03.873Z,4.78
2022-11-02T00:55:30.701Z,4.13
2022-11-02T00:58:02.369Z,3.22
2022-11-02T01:00:29.380Z,2.35
2022-11-02T01:03:00.376Z,2.33
2022-11-02T01:05:27.246Z,2.00
2022-11-02T01:07:54.004Z,1.10
2022-11-02T01:10:21.026Z,0.90
2022-11-02T01:12:47.753Z,0.80
2022-11-02T01:15:14.418Z,0.90
2022-11-02T01:17:41.130Z,3.42
2022-11-02T01:20:08.317Z,3.13
2022-11-02T01:22:35.540Z,2.67
2022-11-02T01:25:02.210Z,2.60
2022-11-02T01:27:29.045Z,2.90
2022-11-02T01:29:55.753Z,2.85
2022-11-02T01:32:22.448Z,2.42
2022-11-02T01:34:49.242Z,2.30
2022-11-02T01:37:15.941Z,2.47
2022-11-02T01:39:42.604Z,2.13
2022-11-02T01:42:21.254Z,2.97
2022-11-02T01:44:48.201Z,4.15
2022-11-02T01:47:23.719Z,5.13
2022-11-02T01:50:12.868Z,3.60
2022-11-02T01:52:41.236Z,5.22
2022-11-02T01:55:12.500Z,4.80
2022-11-02T01:57:41.852Z,4.45
2022-11-02T02:00:14.131Z,3.47
2022-11-02T02:03:11.237Z,2.80
2022-11-02T02:05:43.660Z,2.30
2022-11-02T02:08:14.510Z,1.90
2022-11-02T02:10:41.168Z,2.42
2022-11-02T02:13:08.096Z,2.05
2022-11-02T02:16:14.694Z,2.70
2022-11-02T02:18:48.582Z,3.45
2022-11-02T02:22:00.053Z,3.25
2022-11-02T02:24:50.891Z,3.85
2022-11-02T02:27:55.067Z,4.13
2022-11-02T02:30:21.821Z,3.88
2022-11-02T02:32:54.772Z,4.30
2022-11-02T02:35:30.108Z,4.57
2022-11-02T02:38:03.025Z,4.78
2022-11-02T02:40:49.594Z,4.95
2022-11-02T02:43:36.227Z,5.60
2022-11-02T02:46:17.887Z,5.88
2022-11-02T02:48:46.769Z,5.80
2022-11-02T02:51:21.389Z,5.60
2022-11-02T02:53:53.703Z,6.50
2022-11-02T02:56:23.705Z,6.28
2022-11-02T02:59:06.902Z,5.95
2022-11-02T03:01:35.255Z,5.85
2022-11-02T03:04:02.315Z,6.20
2022-11-02T03:06:32.701Z,6.50
2022-11-02T03:09:23.481Z,5.93
2022-11-02T03:12:15.811Z,5.88
2022-11-02T03:15:03.524Z,5.60
2022-11-02T03:17:55.753Z,5.25
2022-11-02T03:20:38.542Z,5.32
2022-11-02T03:25:38.236Z,5.63
2022-11-02T03:28:33.602Z,5.55
2022-11-02T03:31:09.594Z,5.13
2022-11-02T03:33:43.563Z,4.57
2022-11-02T03:36:18.764Z,4.80
2022-11-02T03:38:56.182Z,4.90
2022-11-02T03:41:25.790Z,4.63
2022-11-02T03:43:59.537Z,4.35
2022-11-02T03:46:28.594Z,4.63
2022-11-02T03:48:56.767Z,4.43
2022-11-02T03:51:24.560Z,3.92
2022-11-02T03:53:56.681Z,4.22
2022-11-02T03:56:31.823Z,4.43
2022-11-02T03:58:59.348Z,4.10
2022-11-02T04:01:27.663Z,4.32
2022-11-02T04:03:55.349Z,4.18
2022-11-02T04:06:23.367Z,4.30
2022-11-02T04:08:50.213Z,4.40
2022-11-02T04:11:38.296Z,4.63
2022-11-02T04:14:28.045Z,4.90
2022-11-02T04:17:15.003Z,3.97
2022-11-02T04:19:49.713Z,4.03
2022-11-02T04:22:36.879Z,4.13
2022-11-02T04:25:19.977Z,4.18
2022-11-02T04:27:55.842Z,3.45
2022-11-02T04:30:27.764Z,3.60
2022-11-02T04:33:14.196Z,3.50
2022-11-02T04:35:48.335Z,3.30
2022-11-02T04:38:33.974Z,3.45
2022-11-02T04:41:19.555Z,3.55
2022-11-02T04:43:49.295Z,3.20
2022-11-02T04:46:18.601Z,2.90
2022-11-02T04:48:46.418Z,2.60
2022-11-02T04:51:14.041Z,3.42
2022-11-02T04:53:40.897Z,2.35
2022-11-02T04:56:10.928Z,2.10
2022-11-02T04:58:38.078Z,2.47
2022-11-02T05:01:11.259Z,2.03
2022-11-02T05:03:38.048Z,2.47
2022-11-02T05:06:05.199Z,2.65
2022-11-02T05:08:32.227Z,2.13
2022-11-02T05:10:59.747Z,2.33
2022-11-02T05:13:28.169Z,2.10
2022-11-02T05:15:58.868Z,2.10
2022-11-02T05:18:27.825Z,1.98
2022-11-02T05:20:57.495Z,1.98
2022-11-02T05:23:26.962Z,2.13
2022-11-02T05:26:02.320Z,2.10
2022-11-02T05:28:31.831Z,2.00
2022-11-02T05:31:02.878Z,1.90
2022-11-02T05:33:33.246Z,2.17
2022-11-02T05:36:05.843Z,1.85
2022-11-02T05:38:34.754Z,2.50
2022-11-02T05:41:02.201Z,1.75
2022-11-02T05:43:33.564Z,2.20
2022-11-02T05:46:03.149Z,2.03
2022-11-02T05:48:32.569Z,2.00
2022-11-02T05:51:01.677Z,2.25
2022-11-02T05:53:33.771Z,2.15
2022-11-02T05:56:01.837Z,2.13
2022-11-02T05:58:29.386Z,1.80
2022-11-02T06:01:03.377Z,1.67
2022-11-02T06:03:30.629Z,1.35
2022-11-02T06:05:58.342Z,1.52
2022-11-02T06:08:25.342Z,1.55
2022-11-02T06:10:52.175Z,1.35
2022-11-02T06:13:18.830Z,1.75
2022-11-02T06:15:45.643Z,1.52
2022-11-02T06:18:12.550Z,1.42
2022-11-02T06:20:39.195Z,1.65
2022-11-02T06:23:06.244Z,1.85
2022-11-02T06:25:33.207Z,1.40
2022-11-02T06:27:59.870Z,1.52
2022-11-02T06:30:30.001Z,1.60
2022-11-02T06:32:56.677Z,1.67
2022-11-02T06:35:23.431Z,1.50
2022-11-02T06:37:50.153Z,1.52
2022-11-02T06:40:18.370Z,1.42
2022-11-02T06:43:03.315Z,1.25
2022-11-02T06:45:34.144Z,1.50
2022-11-02T06:48:01.176Z,1.40
2022-11-02T06:50:27.905Z,1.30
2022-11-02T06:52:54.583Z,1.17
2022-11-02T06:55:21.286Z,1.35
2022-11-02T06:57:47.966Z,1.58
2022-11-02T07:00:21.101Z,1.85
2022-11-02T07:03:01.094Z,1.98
2022-11-02T07:05:28.182Z,1.27
2022-11-02T07:07:55.089Z,2.03
2022-11-02T07:10:22.411Z,1.20
2022-11-02T07:12:52.746Z,1.52
2022-11-02T07:15:20.163Z,1.50
2022-11-02T07:17:46.991Z,1.20
2022-11-02T07:20:14.125Z,1.38
2022-11-02T07:22:41.313Z,1.33
2022-11-02T07:25:08.175Z,1.25
2022-11-02T07:27:39.857Z,1.00
2022-11-02T07:30:08.004Z,1.37
2022-11-02T07:32:44.712Z,1.35
2022-11-02T07:35:13.271Z,1.30
2022-11-02T07:37:40.525Z,1.55
2022-11-02T07:40:09.274Z,1.63
2022-11-02T07:42:36.181Z,1.52
2022-11-02T07:45:05.996Z,1.60
2022-11-02T07:47:33.226Z,1.65
2022-11-02T07:50:00.717Z,1.63
2022-11-02T07:52:27.400Z,1.30
2022-11-02T07:54:54.166Z,1.40
2022-11-02T07:57:20.818Z,1.02
2022-11-02T07:59:47.479Z,1.50
2022-11-02T08:02:14.284Z,1.45
2022-11-02T08:04:44.068Z,1.27
2022-11-02T08:07:12.536Z,1.50
2022-11-02T08:09:39.255Z,1.10
2022-11-02T08:12:06.250Z,1.73
2022-11-02T08:14:32.950Z,1.20
2022-11-02T08:16:59.607Z,1.17
2022-11-02T08:19:26.277Z,1.23
2022-11-02T08:21:52.992Z,1.40
2022-11-02T08:24:19.680Z,1.00
2022-11-02T08:26:47.562Z,1.30
2022-11-02T08:29:15.214Z,1.20
2022-11-02T08:31:41.871Z,1.10
2022-11-02T08:34:09.488Z,1.10
2022-11-02T08:36:36.814Z,1.00
2022-11-02T08:39:03.844Z,1.30
2022-11-02T08:41:30.503Z,1.48
2022-11-02T08:43:57.573Z,1.20
2022-11-02T08:46:24.332Z,1.38
2022-11-02T08:48:51.025Z,1.10
2022-11-02T08:51:17.690Z,1.63
2022-11-02T08:53:50.315Z,1.20
2022-11-02T08:56:18.294Z,1.30
2022-11-02T08:58:45.012Z,1.38
2022-11-02T09:01:11.693Z,1.13
2022-11-02T09:03:38.422Z,1.50
2022-11-02T09:06:05.305Z,1.35
2022-11-02T09:08:33.135Z,1.10
2022-11-02T09:11:01.751Z,1.13
2022-11-02T09:13:28.578Z,1.42
2022-11-02T09:15:57.581Z,1.20
2022-11-02T09:18:24.512Z,1.20
2022-11-02T09:20:51.691Z,2.05
2022-11-02T09:23:20.360Z,1.20
2022-11-02T09:25:47.441Z,0.93
2022-11-02T09:28:15.463Z,1.15
2022-11-02T09:30:42.879Z,1.10
2022-11-02T09:33:10.255Z,1.08
2022-11-02T09:35:39.617Z,1.08
2022-11-02T09:38:06.526Z,1.30
2022-11-02T09:40:59.772Z,1.40
2022-11-02T09:43:53.191Z,1.20
2022-11-02T09:46:30.278Z,1.23
2022-11-02T09:48:58.711Z,1.40
2022-11-02T09:51:38.640Z,1.10
2022-11-02T09:54:13.288Z,1.15
2022-11-02T09:56:44.524Z,1.45
2022-11-02T09:59:20.246Z,1.50
2022-11-02T10:01:57.727Z,1.42
2022-11-02T10:04:35.640Z,0.82
2022-11-02T10:07:29.593Z,1.50
2022-11-02T10:10:02.250Z,1.30
2022-11-02T10:15:13.947Z,1.45
2022-11-02T10:17:42.177Z,1.00
2022-11-02T10:20:25.591Z,1.30
2022-11-02T10:22:56.249Z,1.10
2022-11-02T10:25:24.373Z,1.50
2022-11-02T10:28:01.099Z,0.85
2022-11-02T10:30:28.323Z,1.33
2022-11-02T10:32:56.216Z,1.23
2022-11-02T10:36:04.809Z,1.17
2022-11-02T10:38:48.788Z,0.82
2022-11-02T10:41:27.142Z,1.15
2022-11-02T10:44:35.987Z,1.00
2022-11-02T10:47:18.889Z,1.00
2022-11-02T10:49:57.293Z,0.77
2022-11-02T10:52:24.551Z,1.17
2022-11-02T10:54:51.891Z,1.00
2022-11-02T10:57:25.729Z,0.88
2022-11-02T11:00:24.475Z,0.80
2022-11-02T11:03:11.062Z,1.23
2022-11-02T11:05:57.285Z,0.95
2022-11-02T11:08:39.696Z,1.13
2022-11-02T11:11:27.093Z,1.08
2022-11-02T11:19:52.628Z,0.95
2022-11-02T11:22:35.823Z,0.98
2022-11-02T11:25:27.597Z,1.52
2022-11-02T11:27:56.983Z,0.90
2022-11-02T11:33:25.133Z,1.08
2022-11-02T11:35:52.175Z,0.77
2022-11-02T11:38:26.049Z,1.10
2022-11-02T11:41:00.071Z,1.25
2022-11-02T11:43:30.401Z,1.20
2022-11-02T11:46:06.334Z,1.08
2022-11-02T11:48:54.443Z,1.20
2022-11-02T11:51:38.278Z,2.00
2022-11-02T11:54:28.888Z,1.05
2022-11-02T11:56:58.038Z,1.00
2022-11-02T11:59:48.702Z,1.00
2022-11-02T12:02:30.904Z,0.90
2022-11-02T12:05:18.639Z,1.40
2022-11-02T12:07:59.038Z,1.20
2022-11-02T12:10:57.796Z,1.00
2022-11-02T12:13:54.273Z,1.45
2022-11-02T12:16:55.889Z,1.00
2022-11-02T12:19:56.514Z,1.25
2022-11-02T12:22:38.188Z,1.00
2022-11-02T12:25:27.591Z,1.27
2022-11-02T12:28:13.295Z,0.82
2022-11-02T12:31:06.193Z,0.80
2022-11-02T12:33:42.446Z,1.02
2022-11-02T12:36:18.254Z,0.80
2022-11-02T12:39:03.270Z,0.77
2022-11-02T12:41:56.398Z,1.00
2022-11-02T12:44:41.936Z,0.88
2022-11-02T12:47:42.340Z,1.65
2022-11-02T12:50:53.569Z,1.35
2022-11-02T12:53:42.419Z,1.30
2022-11-02T12:56:27.936Z,1.30
2022-11-02T12:58:55.518Z,1.17
2022-11-02T13:01:26.216Z,1.20
2022-11-02T13:04:10.570Z,1.02
2022-11-02T13:06:43.421Z,1.17
2022-11-02T13:09:31.412Z,1.33
2022-11-02T13:12:09.661Z,1.30
2022-11-02T13:14:42.597Z,1.67
2022-11-02T13:17:20.214Z,1.40
2022-11-02T13:19:51.802Z,1.50
2022-11-02T13:22:21.178Z,1.45
2022-11-02T13:24:56.312Z,1.30
2022-11-02T13:27:36.476Z,1.08
2022-11-02T13:30:12.715Z,1.55
2022-11-02T13:32:45.747Z,1.42
2022-11-02T13:35:19.190Z,1.40
2022-11-02T13:37:53.472Z,1.20
2022-11-02T13:40:34.101Z,1.20
2022-11-02T13:43:09.955Z,1.60
2022-11-02T13:46:12.749Z,1.30
2022-11-02T13:48:53.331Z,1.38
2022-11-02T13:51:35.711Z,1.30
2022-11-02T13:54:11.744Z,1.50
2022-11-02T13:56:38.931Z,1.10
2022-11-02T13:59:17.919Z,1.23
2022-11-02T14:01:45.258Z,1.08
2022-11-02T14:04:14.822Z,1.20
2022-11-02T14:06:50.814Z,1.08
2022-11-02T14:09:35.834Z,1.15
2022-11-02T14:12:20.711Z,1.60
2022-11-02T14:15:10.168Z,1.00
2022-11-02T14:17:56.169Z,0.90
2022-11-02T14:20:40.673Z,1.30
2022-11-02T14:23:10.862Z,1.33
2022-11-02T14:25:49.832Z,1.17
2022-11-02T14:28:22.706Z,1.30
2022-11-02T14:30:56.728Z,1.30
2022-11-02T14:34:01.082Z,1.85
2022-11-02T14:36:49.211Z,1.50
2022-11-02T14:39:50.894Z,3.35
2022-11-02T14:42:38.744Z,3.55
2022-11-02T14:45:10.618Z,5.43
2022-11-02T14:47:38.510Z,4.10
2022-11-02T14:50:09.852Z,2.67
2022-11-02T14:52:37.397Z,1.85
2022-11-02T14:55:19.114Z,1.23
2022-11-02T14:58:11.025Z,1.40
2022-11-02T15:00:59.665Z,1.48
2022-11-02T15:03:26.359Z,1.63
2022-11-02T15:06:23.855Z,1.58
2022-11-02T15:09:01.611Z,1.05
2022-11-02T15:11:50.065Z,1.30
2022-11-02T15:14:35.164Z,1.27
2022-11-02T15:17:24.127Z,1.23
2022-11-02T15:20:13.683Z,1.30
2022-11-02T15:22:54.747Z,1.63
2022-11-02T15:25:27.551Z,1.40
2022-11-02T15:28:02.848Z,1.20
2022-11-02T15:30:31.503Z,1.50
2022-11-02T15:33:06.620Z,1.45
2022-11-02T15:35:36.910Z,1.15
2022-11-02T15:38:25.815Z,1.30
2022-11-02T15:41:06.110Z,1.58
2022-11-02T15:44:01.133Z,1.38
2022-11-02T15:46:40.351Z,2.55
2022-11-02T15:49:42.348Z,2.00
2022-11-02T15:52:12.089Z,2.30
2022-11-02T15:54:46.326Z,2.65
2022-11-02T15:57:50.979Z,3.05
2022-11-02T16:00:29.724Z,5.15
2022-11-02T16:03:05.622Z,4.50
2022-11-02T16:05:41.977Z,3.67
2022-11-02T16:08:43.909Z,17.60
2022-11-02T16:11:17.661Z,13.80
2022-11-02T16:14:08.089Z,11.02
2022-11-02T16:16:35.815Z,34.28
2022-11-02T16:19:02.955Z,69.80
2022-11-02T16:21:30.405Z,46.65
2022-11-02T16:23:57.875Z,16.65
2022-11-02T16:26:28.563Z,13.50
2022-11-02T16:28:58.442Z,6.70
2022-11-02T16:31:35.571Z,8.73
2022-11-02T16:34:09.263Z,11.20
2022-11-02T16:36:37.327Z,5.32
2022-11-02T16:39:13.087Z,4.00
2022-11-02T16:41:40.843Z,4.25
2022-11-02T16:44:17.506Z,10.02
2022-11-02T16:46:55.632Z,9.18
2022-11-02T16:49:29.361Z,10.30
2022-11-02T16:51:58.845Z,9.57
2022-11-02T16:54:34.661Z,8.23
2022-11-02T16:57:14.765Z,7.57
2022-11-02T17:00:04.093Z,5.00
2022-11-02T17:02:38.009Z,4.57
2022-11-02T17:05:07.326Z,3.72
2022-11-02T17:07:38.561Z,6.47
2022-11-02T17:10:06.714Z,8.52
2022-11-02T17:12:37.248Z,37.28
2022-11-02T17:15:24.113Z,36.47
2022-11-02T17:18:11.147Z,19.42
2022-11-02T17:20:39.148Z,11.52
2022-11-02T17:23:08.462Z,5.13
2022-11-02T17:25:37.725Z,5.00
2022-11-02T17:28:33.036Z,5.57
2022-11-02T17:31:00.754Z,13.93
2022-11-02T17:33:30.582Z,11.63
2022-11-02T17:36:05.165Z,13.63
2022-11-02T17:38:31.949Z,5.07
2022-11-02T17:41:00.347Z,4.10
2022-11-02T17:43:27.493Z,7.57
2022-11-02T17:45:59.001Z,9.52
2022-11-02T17:48:30.980Z,11.45
2022-11-02T17:50:59.948Z,7.03
2022-11-02T17:53:27.225Z,7.05
2022-11-02T17:55:55.683Z,5.10
2022-11-02T17:58:22.400Z,5.28
2022-11-02T18:00:49.205Z,7.80
2022-11-02T18:03:19.107Z,8.68
2022-11-02T18:05:49.524Z,11.18
2022-11-02T18:08:17.931Z,15.00
2022-11-02T18:10:46.801Z,13.75
2022-11-02T18:13:19.107Z,6.63
2022-11-02T18:15:46.237Z,18.73
2022-11-02T18:18:13.083Z,24.92
2022-11-02T18:20:41.799Z,11.20
2022-11-02T18:23:15.625Z,16.55
2022-11-02T18:25:42.571Z,8.98
2022-11-02T18:28:09.321Z,4.22
2022-11-02T18:30:36.035Z,4.68
2022-11-02T18:33:02.896Z,6.97
2022-11-02T18:35:29.759Z,11.20
2022-11-02T18:37:56.632Z,11.88
2022-11-02T18:40:23.354Z,9.68
2022-11-02T18:42:50.118Z,8.20
2022-11-02T18:45:16.950Z,5.05
2022-11-02T18:47:43.946Z,2.53
2022-11-02T18:50:12.892Z,2.40
2022-11-02T18:52:41.777Z,3.95
2022-11-02T18:55:08.515Z,7.05
2022-11-02T18:57:35.244Z,8.30
2022-11-02T19:00:02.805Z,7.60
2022-11-02T19:02:30.223Z,5.40
2022-11-02T19:04:57.007Z,6.40
2022-11-02T19:07:42.521Z,5.80
2022-11-02T19:10:09.880Z,5.03
2022-11-02T19:12:36.675Z,6.15
2022-11-02T19:15:04.324Z,8.80
2022-11-02T19:17:31.395Z,4.45
2022-11-02T19:19:58.278Z,4.93
2022-11-02T19:22:26.197Z,7.00
2022-11-02T19:24:53.338Z,8.20
2022-11-02T19:27:22.655Z,6.47
2022-11-02T19:29:49.786Z,7.00
2022-11-02T19:32:17.104Z,6.60
2022-11-02T19:34:44.004Z,5.55
2022-11-02T19:37:10.838Z,5.35
2022-11-02T19:39:37.732Z,6.72
2022-11-02T19:42:07.080Z,7.25
2022-11-02T19:44:38.161Z,9.15
2022-11-02T19:47:09.106Z,6.28
2022-11-02T19:49:35.842Z,4.88
2022-11-02T19:52:02.587Z,4.80
2022-11-02T19:54:29.288Z,4.53
2022-11-02T19:56:55.970Z,4.43
2022-11-02T19:59:22.670Z,6.45
2022-11-02T20:01:50.588Z,7.53
2022-11-02T20:04:17.704Z,7.53
2022-11-02T20:06:44.831Z,17.77
2022-11-02T20:09:16.920Z,8.65
2022-11-02T20:11:45.183Z,4.07
2022-11-02T20:14:13.422Z,5.28
2022-11-02T20:16:40.748Z,5.20
2022-11-02T20:19:08.977Z,5.10
2022-11-02T20:21:41.632Z,4.47
2022-11-02T20:24:12.819Z,5.30
2022-11-02T20:26:43.332Z,8.73
2022-11-02T20:29:13.647Z,8.07
2022-11-02T20:31:44.426Z,8.68
2022-11-02T20:34:12.974Z,9.73
2022-11-02T20:36:39.817Z,6.45
2022-11-02T20:39:07.394Z,4.00
2022-11-02T20:41:34.249Z,17.00
2022-11-02T20:44:00.980Z,10.02
2022-11-02T20:46:38.183Z,4.78
2022-11-02T20:49:22.493Z,2.35
2022-11-02T20:51:53.282Z,3.50
2022-11-02T20:54:21.504Z,3.20
2022-11-02T20:56:49.457Z,2.55
2022-11-02T20:59:16.150Z,2.75
2022-11-02T21:01:43.090Z,2.38
2022-11-02T21:04:11.065Z,2.08
2022-11-02T21:06:40.765Z,1.98
2022-11-02T21:09:10.979Z,2.10
2022-11-02T21:11:57.860Z,4.53
2022-11-02T21:14:24.814Z,4.32
2022-11-02T21:16:51.741Z,5.68
2022-11-02T21:19:18.438Z,6.47
2022-11-02T21:21:45.212Z,7.75
2022-11-02T21:24:12.097Z,8.40
2022-11-02T21:26:38.823Z,3.33
2022-11-02T21:29:05.532Z,3.38
2022-11-02T21:31:32.265Z,2.83
2022-11-02T21:33:58.970Z,1.90
2022-11-02T21:36:25.681Z,2.20
2022-11-02T21:38:52.384Z,2.55
2022-11-02T21:41:26.456Z,2.72
2022-11-02T21:43:55.412Z,2.67
2022-11-02T21:46:24.039Z,3.15
2022-11-02T21:48:50.770Z,3.88
2022-11-02T21:51:19.743Z,4.07
2022-11-02T21:53:48.295Z,3.88
2022-11-02T21:56:21.069Z,2.92
2022-11-02T21:58:48.494Z,2.70
2022-11-02T22:01:37.387Z,2.53
2022-11-02T22:04:04.787Z,3.13
2022-11-02T22:06:32.064Z,2.60
2022-11-02T22:08:59.834Z,2.30
2022-11-02T22:11:27.622Z,2.20
2022-11-02T22:13:56.377Z,2.40
2022-11-02T22:16:25.762Z,2.40
2022-11-02T22:18:55.278Z,3.35
2022-11-02T22:21:22.937Z,3.13
2022-11-02T22:23:50.234Z,3.50
2022-11-02T22:26:19.389Z,6.82
2022-11-02T22:28:46.941Z,6.20
2022-11-02T22:31:31.615Z,3.75
2022-11-02T22:34:00.985Z,3.00
2022-11-02T22:36:30.016Z,2.78
2022-11-02T22:38:58.455Z,2.85
2022-11-02T22:41:44.994Z,3.00
2022-11-02T22:44:13.214Z,2.53
2022-11-02T22:46:45.510Z,3.00
2022-11-02T22:49:13.858Z,2.75
2022-11-02T22:51:43.646Z,2.78
2022-11-02T22:54:15.832Z,3.00
2022-11-02T22:56:43.755Z,2.90
2022-11-02T22:59:10.701Z,2.47
2022-11-02T23:01:37.952Z,3.10
2022-11-02T23:04:05.883Z,3.40
2022-11-02T23:06:33.384Z,3.72
2022-11-02T23:09:00.509Z,3.83
2022-11-02T23:11:35.422Z,3.35
2022-11-02T23:14:03.617Z,3.15
2022-11-02T23:16:36.472Z,3.22
2022-11-02T23:19:30.943Z,3.28
2022-11-02T23:22:30.749Z,3.13
2022-11-02T23:25:11.817Z,3.78
2022-11-02T23:27:59.176Z,3.30
2022-11-02T23:30:47.611Z,3.25
2022-11-02T23:33:15.522Z,3.67
2022-11-02T23:36:01.127Z,3.08
2022-11-02T23:38:46.733Z,2.95
2022-11-02T23:41:13.481Z,3.05
2022-11-02T23:43:40.183Z,3.25
2022-11-02T23:46:06.901Z,2.53
2022-11-02T23:48:33.636Z,3.58
2022-11-02T23:51:19.679Z,4.00
2022-11-02T23:54:04.997Z,2.78
2022-11-02T23:56:46.078Z,3.80
2022-11-02T23:59:14.694Z,3.30
